Airport Name : Tallahassee Rgnl

Other Name : Tallahassee Rgnl

ICAO : KTLH

IATA : TLH

FAA : TLH

Latitude : 30.396528

Longitude : -84.350333

Country : United States

Local Date and Time : 20 Jul 2024 11:09

 

TAF (Terminal Aerodrome Forecast)

KTLH 201120Z 2012/2112 12002KT P6SM SCT035 BKN250 FM201500 15005KT P6SM VCTS BKN035CB FM202200 20007KT P6SM SCT040

 

METAR (METeorological Aerodrome Report)

KTLH 201453Z 20006KT 10SM SCT021 BKN250 32/24 A3010 RMK AO2 LTG DSNT S SLP190 SCT V BKN T03170239 50007

KTLH 201353Z 00000KT 10SM FEW025 SCT120 BKN250 30/25 A3010 RMK AO2 SLP193 CB DSNT SE-S MOV NE T03000250

KTLH 201253Z 11003KT 10SM FEW020 SCT150 BKN250 27/24 A3009 RMK AO2 SLP190 CB DSNT SE S MOV STNRY T02720244

KTLH 201153Z 08003KT 10SM BCFG FEW025 SCT150 BKN250 26/23 A3008 RMK AO2 SLP183 TCU DSNT SE-SW 70004 T02610233 10261 20244 50010